»·PEaware :: DAL491 KPDX-KSFO

DAL491 :: KPDX-KSFO

FLIGHT INFORMATION

Flight Status: Arrived
Operator:
Delta Air Lines
More flights by this operator :: More flights under this callsign
Pilot: Alex S. (7186)
Aircraft: BOEING 757-200
(B752)
More flights by this aircraft type
Origin: KPDX Portland Intl
United States
Destination: KSFO San Francisco Intl
United States
More flights between these airports :: More routes between these airports
Route: MINNE5 FAMUK Q3 FOWND MLBEC BDEGA2
File this flight plan on PilotEdge
Remarks: PBN / A1B3B4B5C4D4O4 DOF / 180110 REG / N19117 EET / KZOA0035 OPR / DAL PER / D RMK / TCAS SIMBRIEF
Altitude:
(Current/Filed)
35,000ft
Speed:
(Current/Filed)
464kts
Departed: 09-Jan-18 07:10 PM
Arrived: 09-Jan-18 08:29 PM
Distance/Time
Traveled:
478nm/1:19
Distance/Time
To Go:
Arrived

Flight Plot

Page will automatically refresh every two minutes.


Map Options




Map Legend


Flown Route
Filed Route
Departure Airport
Arrival Airport
Navaid (VOR, NDB)
Fix

Horizontal Profiles

Position Reports

Time Latitude Longitude Heading Altitude Ground
Speed
09-Jan-18 18:34 45.590460 -122.595077 28 27ft 0kts
09-Jan-18 18:35 45.590460 -122.595077 28 27ft 0kts
09-Jan-18 18:36 45.590460 -122.595077 28 27ft 0kts
09-Jan-18 18:37 45.590460 -122.595077 28 27ft 0kts
09-Jan-18 18:38 45.590460 -122.595077 28 27ft 0kts
09-Jan-18 18:39 45.590460 -122.595077 28 27ft 0kts
09-Jan-18 18:40 45.590460 -122.595077 28 27ft 0kts
09-Jan-18 18:41 45.590460 -122.595077 28 27ft 0kts
09-Jan-18 18:42 45.590460 -122.595077 28 27ft 0kts
09-Jan-18 18:43 45.590460 -122.595077 28 27ft 0kts
09-Jan-18 18:44 45.590460 -122.595077 28 27ft 0kts
09-Jan-18 18:45 45.590460 -122.595077 28 27ft 0kts
09-Jan-18 18:46 45.590460 -122.595077 28 27ft 0kts
09-Jan-18 18:47 45.590460 -122.595077 28 27ft 0kts
09-Jan-18 18:48 45.590460 -122.595077 28 27ft 0kts
09-Jan-18 18:49 45.590460 -122.595077 28 27ft 0kts
09-Jan-18 18:50 45.590460 -122.595077 28 27ft 0kts
09-Jan-18 18:51 45.590460 -122.595077 28 27ft 0kts
09-Jan-18 18:52 45.590460 -122.595077 28 27ft 0kts
09-Jan-18 18:53 45.590460 -122.595077 28 27ft 0kts
09-Jan-18 18:54 45.590460 -122.595077 28 27ft 0kts
09-Jan-18 18:55 45.590460 -122.595077 28 27ft 0kts
09-Jan-18 18:56 45.590460 -122.595077 28 27ft 0kts
09-Jan-18 18:57 45.590380 -122.595140 28 27ft 2kts
09-Jan-18 18:58 45.589876 -122.595393 331 27ft 1kts
09-Jan-18 18:59 45.589786 -122.595268 299 27ft 0kts
09-Jan-18 19:00 45.589786 -122.595268 299 27ft 0kts
09-Jan-18 19:01 45.589786 -122.595268 299 27ft 0kts
09-Jan-18 19:02 45.589786 -122.595268 299 27ft 0kts
09-Jan-18 19:03 45.589786 -122.595268 299 27ft 0kts
09-Jan-18 19:04 45.589786 -122.595268 299 27ft 0kts
09-Jan-18 19:05 45.589786 -122.595268 299 27ft 0kts
09-Jan-18 19:06 45.589788 -122.595271 299 27ft 0kts
09-Jan-18 19:07 45.589819 -122.595351 299 27ft 5kts
09-Jan-18 19:08 45.591117 -122.598492 311 27ft 6kts
09-Jan-18 19:09 45.592688 -122.595604 118 27ft 17kts
09-Jan-18 19:10 45.590256 -122.589288 105 27ft 15kts
09-Jan-18 19:11 45.589614 -122.585778 95 27ft 19kts
09-Jan-18 19:12 45.586914 -122.578646 119 27ft 21kts
09-Jan-18 19:13 45.584351 -122.572056 118 27ft 23kts
09-Jan-18 19:14 45.582746 -122.567498 77 27ft 0kts
09-Jan-18 19:15 45.583590 -122.566864 314 27ft 6kts
09-Jan-18 19:16 45.593898 -122.593110 300 359ft 169kts
09-Jan-18 19:17 45.615925 -122.651269 290 2469ft 188kts
09-Jan-18 19:18 45.637275 -122.716794 300 4092ft 248kts
09-Jan-18 19:19 45.668171 -122.793579 299 7544ft 245kts
09-Jan-18 19:20 45.655593 -122.904013 237 10802ft 283kts
09-Jan-18 19:21 45.594610 -122.943080 182 12123ft 359kts
09-Jan-18 19:22 45.496476 -122.940360 187 15091ft 370kts
09-Jan-18 19:23 45.402513 -122.949924 190 17435ft 383kts
09-Jan-18 19:24 45.295490 -122.962220 189 19731ft 398kts
09-Jan-18 19:25 45.184874 -122.978335 197 21766ft 407kts
09-Jan-18 19:26 45.073236 -123.005973 196 23502ft 423kts
09-Jan-18 19:27 44.961116 -123.032194 197 24817ft 442kts
09-Jan-18 19:28 44.840475 -123.059701 198 26207ft 457kts
09-Jan-18 19:29 44.717514 -123.087475 198 27456ft 470kts
09-Jan-18 19:30 44.588145 -123.118845 199 28629ft 482kts
09-Jan-18 19:31 44.453106 -123.135350 187 29721ft 509kts
09-Jan-18 19:32 44.323204 -123.130424 187 30675ft 517kts
09-Jan-18 19:33 44.183733 -123.125392 188 31688ft 523kts
09-Jan-18 19:34 44.038878 -123.120524 189 32836ft 525kts
09-Jan-18 19:35 43.894778 -123.116116 189 33942ft 526kts
09-Jan-18 19:36 43.750302 -123.111123 189 34960ft 524kts
09-Jan-18 19:37 43.606690 -123.105378 189 34969ft 523kts
09-Jan-18 19:38 43.463306 -123.101922 189 34969ft 522kts
09-Jan-18 19:39 43.319586 -123.096488 188 34972ft 524kts
09-Jan-18 19:40 43.175925 -123.090595 188 34974ft 524kts
09-Jan-18 19:41 43.032445 -123.085422 189 34980ft 523kts
09-Jan-18 19:42 42.888331 -123.081352 188 34969ft 535kts
09-Jan-18 19:43 42.741318 -123.077193 188 34930ft 536kts
09-Jan-18 19:44 42.597797 -123.072542 188 34923ft 536kts
09-Jan-18 19:45 42.453314 -123.066435 188 34926ft 536kts
09-Jan-18 19:46 42.306203 -123.061710 188 34929ft 535kts
09-Jan-18 19:47 42.158848 -123.057977 188 34931ft 535kts
09-Jan-18 19:48 42.011907 -123.053481 188 34931ft 535kts
09-Jan-18 19:49 41.866868 -123.048329 187 34900ft 535kts
09-Jan-18 19:50 41.718878 -123.043222 188 34877ft 534kts
09-Jan-18 19:51 41.571798 -123.037893 187 34877ft 535kts
09-Jan-18 19:52 41.427437 -123.033029 188 34882ft 534kts
09-Jan-18 19:53 41.286295 -123.029399 188 34884ft 534kts
09-Jan-18 19:54 41.139382 -123.025952 188 34887ft 533kts
09-Jan-18 19:55 41.001658 -123.021220 187 34852ft 546kts
09-Jan-18 19:56 40.850588 -123.016483 186 34806ft 550kts
09-Jan-18 19:57 40.699222 -123.015002 187 34812ft 549kts
09-Jan-18 19:58 40.548275 -123.011259 187 34814ft 551kts
09-Jan-18 19:59 40.396148 -123.006816 187 34819ft 550kts
09-Jan-18 20:00 40.251126 -123.002542 186 34825ft 549kts
09-Jan-18 20:01 40.099115 -122.995648 186 34846ft 550kts
09-Jan-18 20:02 39.948598 -122.990827 186 34879ft 549kts
09-Jan-18 20:03 39.800438 -122.986236 186 34866ft 549kts
09-Jan-18 20:04 39.655382 -122.981934 186 34913ft 548kts
09-Jan-18 20:05 39.519070 -122.977457 186 34916ft 548kts
09-Jan-18 20:06 39.381452 -122.973051 186 34920ft 547kts
09-Jan-18 20:07 39.232581 -122.968263 186 34922ft 546kts
09-Jan-18 20:08 39.085958 -122.964383 186 34617ft 550kts
09-Jan-18 20:09 38.943320 -122.961423 186 32846ft 559kts
09-Jan-18 20:10 38.796054 -122.936326 171 30538ft 562kts
09-Jan-18 20:11 38.653224 -122.894139 171 28280ft 537kts
09-Jan-18 20:12 38.519166 -122.854622 171 26276ft 482kts
09-Jan-18 20:13 38.400297 -122.820106 172 24145ft 457kts
09-Jan-18 20:14 38.284090 -122.786463 171 21260ft 428kts
09-Jan-18 20:15 38.174736 -122.754080 171 18990ft 406kts
09-Jan-18 20:16 38.069465 -122.723409 170 17293ft 390kts
09-Jan-18 20:17 37.967175 -122.693860 170 15658ft 376kts
09-Jan-18 20:18 37.875469 -122.647578 141 14012ft 367kts
09-Jan-18 20:19 37.802394 -122.570668 140 12428ft 345kts
09-Jan-18 20:20 37.738744 -122.503390 140 10995ft 316kts
09-Jan-18 20:21 37.677994 -122.438835 140 10956ft 310kts
09-Jan-18 20:22 37.614688 -122.372598 149 10954ft 309kts
09-Jan-18 20:23 37.541501 -122.325729 155 9707ft 304kts
09-Jan-18 20:24 37.470861 -122.280710 155 8324ft 300kts
09-Jan-18 20:25 37.407692 -122.229138 119 6825ft 300kts
09-Jan-18 20:26 37.378970 -122.147242 113 6000ft 271kts
09-Jan-18 20:27 37.389194 -122.077230 29 5135ft 259kts
09-Jan-18 20:28 37.447694 -122.059072 328 3996ft 228kts
09-Jan-18 20:29 37.493968 -122.098776 323 3996ft 216kts
09-Jan-18 20:30 37.526698 -122.157328 298 3412ft 212kts
09-Jan-18 20:31 37.554012 -122.221236 298 2348ft 207kts
09-Jan-18 20:32 37.578702 -122.279793 298 1365ft 179kts
09-Jan-18 20:33 37.598014 -122.325674 294 603ft 124kts
09-Jan-18 20:34 37.613601 -122.362783 292 32ft 113kts
09-Jan-18 20:35 37.619026 -122.377041 272 24ft 29kts
09-Jan-18 20:36 37.616324 -122.379839 209 24ft 14kts
09-Jan-18 20:37 37.615644 -122.382536 223 24ft 2kts
09-Jan-18 20:38 37.615562 -122.382632 226 24ft 0kts
09-Jan-18 20:39 37.615562 -122.382632 226 24ft 0kts
09-Jan-18 20:40 37.615562 -122.382632 226 24ft 0kts
09-Jan-18 20:41 37.615562 -122.382632 226 24ft 0kts
09-Jan-18 20:42 37.615562 -122.382632 226 24ft 0kts

Navigation Log

Ident Type
Flight plan parsing failed, navigation log unavailable